Thunder radar more information blitzortung!


Löydät sääaseman tiedot myös:

European Weather Network

Finland Weather Exchange

Weather Underground

AWEKAS



Weather Underground säähistoriasivu

Päivittäin yhteenveto Elokuu 5, 2017 Yksiköt:  Englantilaiset    Metriset   Molemmat
« Edellinen Päivä
Seuraava Päivä »
Päivittäin Viikoittain Kuukausittain Vuosittain Mukautettu
  Korkea: Matala: Keskiarvo:
Lämpötila: TemperatureC °F 13.1 °F 15.1 °F
Kastepiste: DewpointC °F 12.6 °F 14.2 °F
Kosteus: Humidity % 85 % 93 %
Tuulen nopeus: WindSpeedKMH mph 0.0 mph 0 mph
Tuulenpuuska: WindSpeedGustKMH mph - -
Tuuli:- - SSE
Ilmanpaine: PressurehPa in 992.1 in -
Sade: 9.7 in    
Historical Graphs
 
 
Taulukkotiedot Elokuu 5, 2017
Aika Lämpötila Kastepiste Ilmanpaine Tuuli Tuulen nopeus Tuulenpuuska Kosteus Sademäärä (tunneittain)
TemperatureC °F DewpointC °F PressurehPa in Calm     Humidity % HourlyPrecipMM in
00:00 13.6 °F 13.1 °F 993.8 in Calm     97 % 1.3 in
00:15 13.7 °F 13.2 °F 993.5 in Calm     97 % 1.3 in
00:30 13.7 °F 13.2 °F 993.5 in Calm     97 % 1.0 in
00:45 13.7 °F 13.2 °F 993.5 in Calm     97 % 1.0 in
01:00 13.7 °F 13.2 °F 993.5 in Calm     97 % 0.8 in
01:15 13.7 °F 13.2 °F 993.1 in Calm     97 % 0.8 in
01:30 13.6 °F 13.1 °F 993.1 in Calm     97 % 1.3 in
01:45 13.6 °F 13.1 °F 993.1 in Calm     97 % 2.3 in
02:00 13.6 °F 13.1 °F 993.1 in Calm     97 % 2.5 in
02:15 13.6 °F 13.1 °F 993.1 in Calm     97 % 2.3 in
02:30 13.6 °F 13.1 °F 993.1 in Calm     97 % 2.3 in
02:45 13.5 °F 13.0 °F 993.1 in Calm     97 % 0.8 in
03:00 13.4 °F 13.0 °F 993.1 in Calm     97 % 0.5 in
03:15 13.4 °F 13.0 °F 993.1 in Calm     97 % 0.5 in
03:30 13.4 °F 12.9 °F 992.8 in Calm     97 % 0.3 in
03:45 13.3 °F 12.9 °F 992.8 in Calm     97 % 0.5 in
04:00 13.3 °F 12.8 °F 992.8 in Calm     97 % 0.5 in
04:15 13.2 °F 12.8 °F 992.8 in Calm     97 % 0.3 in
04:30 13.2 °F 12.8 °F 992.4 in Calm     97 % 0.3 in
04:45 13.2 °F 12.8 °F 992.4 in Calm   1.6 mph 97 % 0.0 in
05:00 13.2 °F 12.7 °F 992.4 in Calm     97 % 0.0 in
05:15 13.2 °F 12.7 °F 992.4 in Calm     97 % 0.0 in
05:30 13.2 °F 12.7 °F 992.4 in Calm     97 % 0.0 in
05:45 13.1 °F 12.6 °F 992.1 in Calm     97 % 0.3 in
06:00 13.2 °F 12.7 °F 992.4 in Calm     97 % 0.3 in
06:30 13.3 °F 13.0 °F 992.4 in Calm     98 % 0.3 in
06:45 13.3 °F 13.0 °F 992.4 in Calm     98 % 0.0 in
07:00 13.4 °F 13.1 °F 992.4 in Calm     98 % 0.0 in
07:15 13.6 °F 13.2 °F 992.4 in Calm     98 % 0.0 in
07:30 13.8 °F 13.5 °F 992.4 in Calm     98 % 0.0 in
07:45 13.8 °F 13.5 °F 992.4 in Calm     98 % 0.0 in
08:00 13.8 °F 13.5 °F 992.8 in Calm   1.6 mph 98 % 0.0 in
08:15 13.8 °F 13.5 °F 992.8 in Calm     98 % 0.0 in
08:30 14.0 °F 13.7 °F 992.8 in Calm     98 % 0.0 in
08:45 14.1 °F 13.7 °F 992.8 in Calm     98 % 0.0 in
09:00 14.2 °F 13.9 °F 992.8 in Calm     98 % 0.0 in
09:15 14.4 °F 14.1 °F 992.8 in Calm     98 % 0.0 in
09:30 14.8 °F 14.3 °F 992.8 in Calm     97 % 0.0 in
09:45 14.8 °F 14.1 °F 993.1 in Calm     96 % 0.0 in
10:00 14.9 °F 14.3 °F 993.1 in Calm   1.6 mph 96 % 0.0 in
10:15 15.2 °F 14.5 °F 993.1 in Calm     96 % 0.0 in
10:30 15.3 °F 14.5 °F 993.1 in Calm     95 % 0.0 in
10:45 15.6 °F 14.8 °F 993.5 in Calm     95 % 0.0 in
11:00 15.6 °F 14.6 °F 993.5 in Calm   3.2 mph 94 % 0.0 in
11:15 15.8 °F 14.9 °F 993.5 in Calm   1.6 mph 94 % 0.3 in
11:30 16.1 °F 15.3 °F 993.5 in Calm     95 % 0.3 in
11:45 16.7 °F 15.9 °F 993.8 in Calm   1.6 mph 95 % 0.3 in
12:00 16.8 °F 15.5 °F 993.8 in Calm   6.4 mph 92 % 0.3 in
12:15 16.7 °F 15.0 °F 993.8 in Calm   8.0 mph 90 % 0.0 in
12:30 16.7 °F 15.0 °F 994.1 in Calm   6.4 mph 90 % 0.0 in
12:45 16.6 °F 15.5 °F 994.1 in Calm   6.4 mph 93 % 0.0 in
13:00 16.8 °F 15.8 °F 994.1 in Calm     94 % 0.0 in
13:15 17.2 °F 15.6 °F 994.1 in Calm   1.6 mph 90 % 0.0 in
13:30 17.8 °F 15.8 °F 994.1 in Calm   1.6 mph 88 % 0.0 in
13:45 17.8 °F 15.6 °F 994.5 in Calm     87 % 0.0 in
14:00 18.3 °F 16.4 °F 994.5 in Calm   6.4 mph 89 % 0.0 in
14:15 18.5 °F 16.5 °F 994.5 in Calm   1.6 mph 88 % 0.0 in
14:30 18.9 °F 16.5 °F 994.5 in Calm   3.2 mph 86 % 0.0 in
14:45 19.4 °F 16.8 °F 994.5 in Calm   1.6 mph 85 % 0.0 in
15:00 19.0 °F 16.6 °F 994.5 in Calm   3.2 mph 86 % 0.0 in
15:15 18.4 °F 16.4 °F 994.5 in Calm     88 % 0.0 in
15:30 18.4 °F 16.8 °F 994.5 in Calm   3.2 mph 90 % 0.0 in
15:45 19.2 °F 17.0 °F 994.8 in Calm   4.8 mph 87 % 0.0 in
16:00 19.2 °F 16.9 °F 994.8 in Calm   8.0 mph 87 % 0.0 in
16:15 18.7 °F 16.3 °F 994.8 in Calm   1.6 mph 86 % 0.0 in
16:30 18.5 °F 16.3 °F 994.8 in Calm   1.6 mph 87 % 0.0 in
16:45 18.5 °F 16.7 °F 994.8 in Calm     89 % 0.0 in
17:00 18.6 °F 16.8 °F 994.8 in Calm     89 % 0.0 in
17:15 18.7 °F 16.3 °F 994.8 in Calm     86 % 0.0 in
17:30 18.8 °F 16.4 °F 994.8 in Calm   1.6 mph 86 % 0.0 in
17:45 18.9 °F 16.5 °F 994.8 in Calm     86 % 0.0 in
18:00 18.8 °F 16.6 °F 995.1 in Calm     87 % 0.0 in
18:15 16.9 °F 14.4 °F 995.5 in SSE 1.6 mph 9.7 mph 85 % 4.8 in
18:30 15.3 °F 13.9 °F 995.5 in Calm   3.2 mph 91 % 5.1 in
18:45 14.8 °F 13.8 °F 995.5 in Calm     94 % 5.1 in
19:00 14.7 °F 13.9 °F 995.5 in Calm     95 % 5.1 in
19:30 14.9 °F 14.3 °F 995.8 in Calm     96 % 0.0 in
19:45 14.9 °F 14.3 °F 995.8 in Calm     96 % 0.0 in
20:00 14.8 °F 14.2 °F 995.8 in Calm   3.2 mph 96 % 0.0 in
20:15 14.8 °F 14.1 °F 995.8 in Calm     96 % 0.0 in
20:30 14.8 °F 14.2 °F 995.8 in Calm     96 % 0.0 in
20:45 14.9 °F 14.4 °F 995.8 in Calm     97 % 0.0 in
21:00 14.9 °F 14.4 °F 995.8 in Calm     97 % 0.0 in
21:30 14.8 °F 14.3 °F 996.2 in Calm     97 % 0.0 in
21:45 14.7 °F 14.2 °F 996.2 in Calm     97 % 0.0 in
22:00 14.6 °F 14.1 °F 996.2 in Calm     97 % 0.0 in
22:15 14.4 °F 14.0 °F 996.2 in Calm     97 % 0.0 in
22:30 14.3 °F 13.9 °F 996.2 in Calm     97 % 0.0 in
22:45 14.2 °F 13.7 °F 996.2 in Calm     97 % 0.0 in
23:00 14.0 °F 13.5 °F 996.5 in Calm     97 % 0.0 in
23:15 13.8 °F 13.4 °F 996.5 in Calm     97 % 0.0 in
23:30 13.7 °F 13.3 °F 996.5 in Calm     97 % 0.0 in
23:45 13.6 °F 13.1 °F 996.5 in Calm     97 % 0.0 in
Esan sääasema
Terveisin Weather Underground - 2.75 mb

Alkuperäinen skripti  Jim McMurry - jmcmurry@mwt.net Sovitettu myös templatelle  Wim van der Kuil - Leuven-Template.eu

Laitteet joita käytämme:

Sääasema
Davis VP2

Sääasemaohjelma
Cumulus

Sääaseman tietokone
Asus EeePC

Palveluntarjoaja
Suncomet

Davis VP2

Cumulus

Asus EeePC

Suncomet